CTH9 weather

St-Augustin Heliport
St-Augustin, Quebec, Canada

Public forecast

Using degrees Celsius for public forecast. Weather courtesy of forecast.io.

METAR (pilot weather report)

Closest report is Lourdes de Blanc Sablon Airport, 56.2 nm (104.1 km) ENE. Retrieved 2019/09/17 05:00 UTC (36 minutes ago):

CYBX 170500Z 34009KT 15SM SCT025 BKN070 07/04 A2988 RMK SC3AC2 SLP123

TAF (pilot weather forecast)

Closest forecast is Lourdes de Blanc Sablon Airport, 56.2 nm (104.1 km) ENE. Retrieved 2019/09/17 02:00 UTC (4 hours ago):

TAF CYBX 170140Z 1702/1714 02008G18KT P6SM BKN025 OVC090 TEMPO 1702/1704 BKN020 OVC090 FM170400 01015G25KT P6SM SCT020 TEMPO 1704/1712 BKN020 BECMG 1706/1708 35018G30KT FM171200 35020G35KT P6SM BKN025 RMK NXT FCST BY 170800Z